sensor_id;sensor_type;location;lat;lon;timestamp;P1;durP1;ratioP1;P2;durP2;ratioP2
70406;SDS011;57821;52.202;0.154;2024-03-02T00:01:34;2.92;;;0.93;;
70406;SDS011;57821;52.202;0.154;2024-03-02T00:04:02;4.50;;;0.75;;
70406;SDS011;57821;52.202;0.154;2024-03-02T00:06:30;5.75;;;1.00;;
70406;SDS011;57821;52.202;0.154;2024-03-02T00:08:58;5.90;;;1.02;;
70406;SDS011;57821;52.202;0.154;2024-03-02T00:11:25;7.05;;;0.73;;
70406;SDS011;57821;52.202;0.154;2024-03-02T00:13:52;8.75;;;1.45;;
70406;SDS011;57821;52.202;0.154;2024-03-02T00:16:20;3.00;;;0.80;;
70406;SDS011;57821;52.202;0.154;2024-03-02T00:18:47;3.47;;;0.73;;
70406;SDS011;57821;52.202;0.154;2024-03-02T00:21:13;5.72;;;1.42;;
70406;SDS011;57821;52.202;0.154;2024-03-02T00:23:42;6.35;;;1.17;;
70406;SDS011;57821;52.202;0.154;2024-03-02T00:26:09;6.93;;;1.10;;
70406;SDS011;57821;52.202;0.154;2024-03-02T00:28:38;6.43;;;0.98;;
70406;SDS011;57821;52.202;0.154;2024-03-02T00:31:06;3.47;;;0.90;;
70406;SDS011;57821;52.202;0.154;2024-03-02T00:33:35;5.68;;;0.88;;
70406;SDS011;57821;52.202;0.154;2024-03-02T00:36:05;8.07;;;1.00;;
70406;SDS011;57821;52.202;0.154;2024-03-02T00:38:33;6.32;;;1.50;;
70406;SDS011;57821;52.202;0.154;2024-03-02T00:41:06;3.92;;;0.95;;
70406;SDS011;57821;52.202;0.154;2024-03-02T00:43:41;7.97;;;1.20;;
70406;SDS011;57821;52.202;0.154;2024-03-02T00:46:20;6.63;;;1.20;;
70406;SDS011;57821;52.202;0.154;2024-03-02T00:51:22;6.47;;;1.20;;
70406;SDS011;57821;52.202;0.154;2024-03-02T00:53:50;3.55;;;0.80;;
70406;SDS011;57821;52.202;0.154;2024-03-02T00:56:19;4.75;;;0.98;;
70406;SDS011;57821;52.202;0.154;2024-03-02T00:58:45;5.07;;;1.00;;
70406;SDS011;57821;52.202;0.154;2024-03-02T01:01:12;7.35;;;1.25;;
70406;SDS011;57821;52.202;0.154;2024-03-02T01:03:39;7.22;;;1.23;;
70406;SDS011;57821;52.202;0.154;2024-03-02T01:06:08;6.20;;;1.38;;
70406;SDS011;57821;52.202;0.154;2024-03-02T01:08:35;5.78;;;1.13;;
70406;SDS011;57821;52.202;0.154;2024-03-02T01:11:02;4.18;;;1.15;;
70406;SDS011;57821;52.202;0.154;2024-03-02T01:13:29;7.25;;;1.13;;
70406;SDS011;57821;52.202;0.154;2024-03-02T01:15:57;6.80;;;1.40;;
70406;SDS011;57821;52.202;0.154;2024-03-02T01:18:24;7.20;;;1.30;;
70406;SDS011;57821;52.202;0.154;2024-03-02T01:20:52;6.47;;;1.40;;
70406;SDS011;57821;52.202;0.154;2024-03-02T01:23:19;5.20;;;1.10;;
70406;SDS011;57821;52.202;0.154;2024-03-02T01:25:46;3.95;;;1.40;;
70406;SDS011;57821;52.202;0.154;2024-03-02T01:28:14;5.68;;;1.40;;
70406;SDS011;57821;52.202;0.154;2024-03-02T01:30:41;7.35;;;1.17;;
70406;SDS011;57821;52.202;0.154;2024-03-02T01:33:08;7.40;;;1.40;;
70406;SDS011;57821;52.202;0.154;2024-03-02T01:35:35;7.22;;;1.23;;
70406;SDS011;57821;52.202;0.154;2024-03-02T01:38:02;7.40;;;1.20;;
70406;SDS011;57821;52.202;0.154;2024-03-02T01:40:30;7.57;;;1.40;;
70406;SDS011;57821;52.202;0.154;2024-03-02T01:42:56;7.00;;;1.27;;
70406;SDS011;57821;52.202;0.154;2024-03-02T01:45:24;3.80;;;1.00;;
70406;SDS011;57821;52.202;0.154;2024-03-02T01:47:51;5.93;;;1.50;;
70406;SDS011;57821;52.202;0.154;2024-03-02T01:50:25;8.35;;;1.48;;
70406;SDS011;57821;52.202;0.154;2024-03-02T01:52:53;4.63;;;1.45;;
70406;SDS011;57821;52.202;0.154;2024-03-02T01:55:20;9.50;;;1.65;;
70406;SDS011;57821;52.202;0.154;2024-03-02T01:57:47;4.95;;;1.20;;
70406;SDS011;57821;52.202;0.154;2024-03-02T02:00:15;7.35;;;1.85;;
70406;SDS011;57821;52.202;0.154;2024-03-02T02:02:42;9.88;;;1.92;;
70406;SDS011;57821;52.202;0.154;2024-03-02T02:05:10;6.57;;;1.50;;
70406;SDS011;57821;52.202;0.154;2024-03-02T02:07:37;6.57;;;1.60;;
70406;SDS011;57821;52.202;0.154;2024-03-02T02:10:04;8.90;;;1.70;;
70406;SDS011;57821;52.202;0.154;2024-03-02T02:12:31;8.23;;;1.88;;
70406;SDS011;57821;52.202;0.154;2024-03-02T02:14:58;6.45;;;1.77;;
70406;SDS011;57821;52.202;0.154;2024-03-02T02:17:24;10.50;;;2.28;;
70406;SDS011;57821;52.202;0.154;2024-03-02T02:19:51;7.85;;;1.38;;
70406;SDS011;57821;52.202;0.154;2024-03-02T02:22:18;6.45;;;1.67;;
70406;SDS011;57821;52.202;0.154;2024-03-02T02:24:44;7.00;;;1.45;;
70406;SDS011;57821;52.202;0.154;2024-03-02T02:27:11;9.05;;;2.22;;
70406;SDS011;57821;52.202;0.154;2024-03-02T02:29:41;7.85;;;1.55;;
70406;SDS011;57821;52.202;0.154;2024-03-02T02:32:08;13.93;;;2.30;;
70406;SDS011;57821;52.202;0.154;2024-03-02T02:34:35;7.35;;;1.55;;
70406;SDS011;57821;52.202;0.154;2024-03-02T02:37:03;5.18;;;1.25;;
70406;SDS011;57821;52.202;0.154;2024-03-02T02:39:29;4.72;;;1.20;;
70406;SDS011;57821;52.202;0.154;2024-03-02T02:41:56;6.85;;;1.67;;
70406;SDS011;57821;52.202;0.154;2024-03-02T02:44:23;6.72;;;1.05;;
70406;SDS011;57821;52.202;0.154;2024-03-02T02:46:49;5.53;;;1.35;;
70406;SDS011;57821;52.202;0.154;2024-03-02T02:49:16;11.98;;;1.60;;
70406;SDS011;57821;52.202;0.154;2024-03-02T02:51:43;6.45;;;1.27;;
70406;SDS011;57821;52.202;0.154;2024-03-02T02:54:10;8.88;;;1.20;;
70406;SDS011;57821;52.202;0.154;2024-03-02T02:56:36;5.63;;;0.90;;
70406;SDS011;57821;52.202;0.154;2024-03-02T02:59:03;4.53;;;0.95;;
70406;SDS011;57821;52.202;0.154;2024-03-02T03:01:30;9.20;;;1.50;;
70406;SDS011;57821;52.202;0.154;2024-03-02T03:03:57;9.55;;;1.27;;
70406;SDS011;57821;52.202;0.154;2024-03-02T03:06:24;5.45;;;1.20;;
70406;SDS011;57821;52.202;0.154;2024-03-02T03:08:51;4.22;;;0.77;;
70406;SDS011;57821;52.202;0.154;2024-03-02T03:11:17;6.00;;;1.20;;
70406;SDS011;57821;52.202;0.154;2024-03-02T03:13:44;6.80;;;1.02;;
70406;SDS011;57821;52.202;0.154;2024-03-02T03:16:11;6.72;;;1.58;;
70406;SDS011;57821;52.202;0.154;2024-03-02T03:18:38;8.40;;;1.15;;
70406;SDS011;57821;52.202;0.154;2024-03-02T03:21:05;6.05;;;1.10;;
70406;SDS011;57821;52.202;0.154;2024-03-02T03:23:31;9.45;;;1.48;;
70406;SDS011;57821;52.202;0.154;2024-03-02T03:25:58;9.13;;;1.52;;
70406;SDS011;57821;52.202;0.154;2024-03-02T03:28:25;8.40;;;1.52;;
70406;SDS011;57821;52.202;0.154;2024-03-02T03:30:51;9.10;;;1.25;;
70406;SDS011;57821;52.202;0.154;2024-03-02T03:33:18;9.25;;;1.17;;
70406;SDS011;57821;52.202;0.154;2024-03-02T03:35:45;9.85;;;1.10;;
70406;SDS011;57821;52.202;0.154;2024-03-02T03:38:11;6.05;;;1.02;;
70406;SDS011;57821;52.202;0.154;2024-03-02T03:40:38;10.13;;;1.30;;
70406;SDS011;57821;52.202;0.154;2024-03-02T03:43:05;6.78;;;1.27;;
70406;SDS011;57821;52.202;0.154;2024-03-02T03:45:32;6.00;;;1.08;;
70406;SDS011;57821;52.202;0.154;2024-03-02T03:47:58;9.35;;;1.80;;
70406;SDS011;57821;52.202;0.154;2024-03-02T03:50:25;10.23;;;1.23;;
70406;SDS011;57821;52.202;0.154;2024-03-02T03:52:52;9.88;;;1.52;;
70406;SDS011;57821;52.202;0.154;2024-03-02T03:55:19;9.82;;;1.55;;
70406;SDS011;57821;52.202;0.154;2024-03-02T03:57:45;16.08;;;3.00;;
70406;SDS011;57821;52.202;0.154;2024-03-02T04:00:12;7.03;;;1.10;;
70406;SDS011;57821;52.202;0.154;2024-03-02T04:02:40;9.80;;;1.80;;
70406;SDS011;57821;52.202;0.154;2024-03-02T04:05:07;7.43;;;1.23;;
70406;SDS011;57821;52.202;0.154;2024-03-02T04:07:37;5.18;;;1.10;;
70406;SDS011;57821;52.202;0.154;2024-03-02T04:10:07;11.13;;;1.58;;
70406;SDS011;57821;52.202;0.154;2024-03-02T04:12:36;9.30;;;1.90;;
70406;SDS011;57821;52.202;0.154;2024-03-02T04:15:06;9.93;;;1.50;;
70406;SDS011;57821;52.202;0.154;2024-03-02T04:17:33;9.43;;;1.60;;
70406;SDS011;57821;52.202;0.154;2024-03-02T04:20:02;12.35;;;1.40;;
70406;SDS011;57821;52.202;0.154;2024-03-02T04:22:32;16.88;;;1.88;;
70406;SDS011;57821;52.202;0.154;2024-03-02T04:25:01;12.38;;;1.90;;
70406;SDS011;57821;52.202;0.154;2024-03-02T04:27:28;15.25;;;2.05;;
70406;SDS011;57821;52.202;0.154;2024-03-02T04:29:55;12.10;;;1.40;;
70406;SDS011;57821;52.202;0.154;2024-03-02T04:32:21;16.98;;;2.15;;
70406;SDS011;57821;52.202;0.154;2024-03-02T04:34:48;13.07;;;2.75;;
70406;SDS011;57821;52.202;0.154;2024-03-02T04:37:15;12.63;;;2.65;;
70406;SDS011;57821;52.202;0.154;2024-03-02T04:39:42;11.57;;;2.13;;
70406;SDS011;57821;52.202;0.154;2024-03-02T04:42:08;12.68;;;1.50;;
70406;SDS011;57821;52.202;0.154;2024-03-02T04:44:35;10.23;;;1.80;;
70406;SDS011;57821;52.202;0.154;2024-03-02T04:47:03;12.48;;;1.70;;
70406;SDS011;57821;52.202;0.154;2024-03-02T04:49:30;10.55;;;1.80;;
70406;SDS011;57821;52.202;0.154;2024-03-02T04:51:57;11.57;;;1.67;;
70406;SDS011;57821;52.202;0.154;2024-03-02T04:54:24;7.85;;;1.50;;
70406;SDS011;57821;52.202;0.154;2024-03-02T04:56:51;15.77;;;1.83;;
70406;SDS011;57821;52.202;0.154;2024-03-02T04:59:22;16.77;;;1.30;;
70406;SDS011;57821;52.202;0.154;2024-03-02T05:01:49;8.60;;;1.50;;
70406;SDS011;57821;52.202;0.154;2024-03-02T05:04:15;11.50;;;1.85;;
70406;SDS011;57821;52.202;0.154;2024-03-02T05:06:42;7.60;;;2.20;;
70406;SDS011;57821;52.202;0.154;2024-03-02T05:09:09;10.85;;;1.63;;
70406;SDS011;57821;52.202;0.154;2024-03-02T05:11:36;14.38;;;1.90;;
70406;SDS011;57821;52.202;0.154;2024-03-02T05:14:05;12.00;;;1.92;;
70406;SDS011;57821;52.202;0.154;2024-03-02T05:16:35;11.65;;;1.67;;
70406;SDS011;57821;52.202;0.154;2024-03-02T05:19:03;12.55;;;1.50;;
70406;SDS011;57821;52.202;0.154;2024-03-02T05:21:29;9.13;;;1.45;;
70406;SDS011;57821;52.202;0.154;2024-03-02T05:23:56;10.15;;;1.98;;
70406;SDS011;57821;52.202;0.154;2024-03-02T05:26:23;12.05;;;1.42;;
70406;SDS011;57821;52.202;0.154;2024-03-02T05:28:49;9.45;;;1.73;;
70406;SDS011;57821;52.202;0.154;2024-03-02T05:31:16;12.50;;;1.50;;
70406;SDS011;57821;52.202;0.154;2024-03-02T05:33:43;13.40;;;1.52;;
70406;SDS011;57821;52.202;0.154;2024-03-02T05:36:10;15.40;;;2.30;;
70406;SDS011;57821;52.202;0.154;2024-03-02T05:38:37;9.45;;;1.65;;
70406;SDS011;57821;52.202;0.154;2024-03-02T05:41:04;16.23;;;2.65;;
70406;SDS011;57821;52.202;0.154;2024-03-02T05:43:31;13.43;;;1.73;;
70406;SDS011;57821;52.202;0.154;2024-03-02T05:45:57;10.88;;;2.03;;
70406;SDS011;57821;52.202;0.154;2024-03-02T05:48:24;8.55;;;1.55;;
70406;SDS011;57821;52.202;0.154;2024-03-02T05:50:51;15.80;;;2.10;;
70406;SDS011;57821;52.202;0.154;2024-03-02T05:53:17;16.05;;;2.70;;
70406;SDS011;57821;52.202;0.154;2024-03-02T05:55:44;11.98;;;2.00;;
70406;SDS011;57821;52.202;0.154;2024-03-02T05:58:11;13.02;;;1.90;;
70406;SDS011;57821;52.202;0.154;2024-03-02T06:00:52;10.82;;;1.65;;
70406;SDS011;57821;52.202;0.154;2024-03-02T06:03:21;18.45;;;2.25;;
70406;SDS011;57821;52.202;0.154;2024-03-02T06:05:47;12.07;;;2.47;;
70406;SDS011;57821;52.202;0.154;2024-03-02T06:08:15;16.23;;;1.90;;
70406;SDS011;57821;52.202;0.154;2024-03-02T06:10:43;10.27;;;2.00;;
70406;SDS011;57821;52.202;0.154;2024-03-02T06:13:09;15.23;;;1.92;;
70406;SDS011;57821;52.202;0.154;2024-03-02T06:15:36;12.43;;;1.80;;
70406;SDS011;57821;52.202;0.154;2024-03-02T06:18:03;15.82;;;2.25;;
70406;SDS011;57821;52.202;0.154;2024-03-02T06:20:30;13.48;;;2.20;;
70406;SDS011;57821;52.202;0.154;2024-03-02T06:23:03;12.82;;;2.08;;
70406;SDS011;57821;52.202;0.154;2024-03-02T06:25:30;11.15;;;2.10;;
70406;SDS011;57821;52.202;0.154;2024-03-02T06:27:57;12.23;;;1.90;;
70406;SDS011;57821;52.202;0.154;2024-03-02T06:30:24;18.73;;;3.40;;
70406;SDS011;57821;52.202;0.154;2024-03-02T06:32:51;12.30;;;2.22;;
70406;SDS011;57821;52.202;0.154;2024-03-02T06:35:17;10.65;;;1.50;;
70406;SDS011;57821;52.202;0.154;2024-03-02T06:37:44;18.02;;;2.65;;
70406;SDS011;57821;52.202;0.154;2024-03-02T06:40:11;17.08;;;3.55;;
70406;SDS011;57821;52.202;0.154;2024-03-02T06:42:38;14.27;;;2.00;;
70406;SDS011;57821;52.202;0.154;2024-03-02T06:45:06;10.80;;;1.77;;
70406;SDS011;57821;52.202;0.154;2024-03-02T06:47:33;17.30;;;2.33;;
70406;SDS011;57821;52.202;0.154;2024-03-02T06:49:59;17.17;;;3.33;;
70406;SDS011;57821;52.202;0.154;2024-03-02T06:52:26;16.05;;;2.30;;
70406;SDS011;57821;52.202;0.154;2024-03-02T06:54:53;17.15;;;2.33;;
70406;SDS011;57821;52.202;0.154;2024-03-02T06:57:20;11.55;;;2.03;;
70406;SDS011;57821;52.202;0.154;2024-03-02T06:59:47;16.77;;;2.20;;
70406;SDS011;57821;52.202;0.154;2024-03-02T07:02:16;12.23;;;2.10;;
70406;SDS011;57821;52.202;0.154;2024-03-02T07:04:43;14.90;;;2.35;;
70406;SDS011;57821;52.202;0.154;2024-03-02T07:07:11;15.25;;;3.95;;
70406;SDS011;57821;52.202;0.154;2024-03-02T07:09:38;17.52;;;2.58;;
70406;SDS011;57821;52.202;0.154;2024-03-02T07:12:05;14.07;;;2.35;;
70406;SDS011;57821;52.202;0.154;2024-03-02T07:14:32;12.18;;;2.30;;
70406;SDS011;57821;52.202;0.154;2024-03-02T07:17:17;16.92;;;2.50;;
70406;SDS011;57821;52.202;0.154;2024-03-02T07:19:43;21.58;;;2.33;;
70406;SDS011;57821;52.202;0.154;2024-03-02T07:22:10;15.57;;;2.00;;
70406;SDS011;57821;52.202;0.154;2024-03-02T07:24:41;14.75;;;2.13;;
70406;SDS011;57821;52.202;0.154;2024-03-02T07:27:09;14.65;;;2.55;;
70406;SDS011;57821;52.202;0.154;2024-03-02T07:29:36;19.45;;;2.30;;
70406;SDS011;57821;52.202;0.154;2024-03-02T07:32:03;13.68;;;2.67;;
70406;SDS011;57821;52.202;0.154;2024-03-02T07:34:30;15.00;;;2.33;;
70406;SDS011;57821;52.202;0.154;2024-03-02T07:36:58;14.57;;;1.80;;
70406;SDS011;57821;52.202;0.154;2024-03-02T07:39:25;13.23;;;2.05;;
70406;SDS011;57821;52.202;0.154;2024-03-02T07:41:52;14.32;;;2.40;;
70406;SDS011;57821;52.202;0.154;2024-03-02T07:44:19;12.20;;;2.65;;
70406;SDS011;57821;52.202;0.154;2024-03-02T07:46:46;14.75;;;2.03;;
70406;SDS011;57821;52.202;0.154;2024-03-02T07:49:16;14.02;;;1.92;;
70406;SDS011;57821;52.202;0.154;2024-03-02T07:51:43;12.90;;;2.20;;
70406;SDS011;57821;52.202;0.154;2024-03-02T07:54:09;15.50;;;2.20;;
70406;SDS011;57821;52.202;0.154;2024-03-02T07:56:36;11.70;;;1.73;;
70406;SDS011;57821;52.202;0.154;2024-03-02T07:59:03;19.75;;;2.30;;
70406;SDS011;57821;52.202;0.154;2024-03-02T08:01:31;22.73;;;2.65;;
70406;SDS011;57821;52.202;0.154;2024-03-02T08:03:59;14.18;;;2.17;;
70406;SDS011;57821;52.202;0.154;2024-03-02T08:06:27;15.13;;;2.08;;
70406;SDS011;57821;52.202;0.154;2024-03-02T08:08:54;13.85;;;1.85;;
70406;SDS011;57821;52.202;0.154;2024-03-02T08:11:24;12.77;;;1.83;;
70406;SDS011;57821;52.202;0.154;2024-03-02T08:13:51;16.42;;;2.15;;
70406;SDS011;57821;52.202;0.154;2024-03-02T08:16:21;22.98;;;3.53;;
70406;SDS011;57821;52.202;0.154;2024-03-02T08:18:52;21.88;;;3.70;;
70406;SDS011;57821;52.202;0.154;2024-03-02T08:21:19;16.67;;;2.88;;
70406;SDS011;57821;52.202;0.154;2024-03-02T08:23:46;16.45;;;1.98;;
70406;SDS011;57821;52.202;0.154;2024-03-02T08:26:13;14.35;;;1.67;;
70406;SDS011;57821;52.202;0.154;2024-03-02T08:28:40;19.90;;;2.15;;
70406;SDS011;57821;52.202;0.154;2024-03-02T08:31:07;10.27;;;1.75;;
70406;SDS011;57821;52.202;0.154;2024-03-02T08:33:34;15.30;;;2.65;;
70406;SDS011;57821;52.202;0.154;2024-03-02T08:36:04;15.18;;;2.28;;
70406;SDS011;57821;52.202;0.154;2024-03-02T08:38:31;12.57;;;2.05;;
70406;SDS011;57821;52.202;0.154;2024-03-02T08:40:59;6.55;;;1.30;;
70406;SDS011;57821;52.202;0.154;2024-03-02T08:43:26;7.82;;;1.10;;
70406;SDS011;57821;52.202;0.154;2024-03-02T08:45:52;10.68;;;1.40;;
70406;SDS011;57821;52.202;0.154;2024-03-02T08:48:19;8.27;;;1.40;;
70406;SDS011;57821;52.202;0.154;2024-03-02T08:50:47;11.70;;;1.83;;
70406;SDS011;57821;52.202;0.154;2024-03-02T08:53:14;14.07;;;1.85;;
70406;SDS011;57821;52.202;0.154;2024-03-02T08:55:45;8.35;;;1.70;;
70406;SDS011;57821;52.202;0.154;2024-03-02T08:58:12;10.32;;;2.00;;
70406;SDS011;57821;52.202;0.154;2024-03-02T09:00:39;6.32;;;1.17;;
70406;SDS011;57821;52.202;0.154;2024-03-02T09:03:07;8.40;;;1.00;;
70406;SDS011;57821;52.202;0.154;2024-03-02T09:05:34;6.85;;;1.20;;
70406;SDS011;57821;52.202;0.154;2024-03-02T09:08:01;10.80;;;1.25;;
70406;SDS011;57821;52.202;0.154;2024-03-02T09:10:27;5.30;;;0.98;;
70406;SDS011;57821;52.202;0.154;2024-03-02T09:12:54;8.50;;;1.33;;
70406;SDS011;57821;52.202;0.154;2024-03-02T09:15:21;6.70;;;1.05;;
70406;SDS011;57821;52.202;0.154;2024-03-02T09:17:48;7.95;;;1.25;;
70406;SDS011;57821;52.202;0.154;2024-03-02T09:20:14;7.80;;;1.27;;
70406;SDS011;57821;52.202;0.154;2024-03-02T09:22:42;13.15;;;2.85;;
70406;SDS011;57821;52.202;0.154;2024-03-02T09:25:09;10.88;;;2.05;;
70406;SDS011;57821;52.202;0.154;2024-03-02T09:27:36;9.27;;;1.80;;
70406;SDS011;57821;52.202;0.154;2024-03-02T09:30:07;9.65;;;1.63;;
70406;SDS011;57821;52.202;0.154;2024-03-02T09:32:34;10.10;;;2.20;;
70406;SDS011;57821;52.202;0.154;2024-03-02T09:35:01;16.15;;;2.17;;
70406;SDS011;57821;52.202;0.154;2024-03-02T09:37:28;15.50;;;1.77;;
70406;SDS011;57821;52.202;0.154;2024-03-02T09:39:55;14.05;;;1.90;;
70406;SDS011;57821;52.202;0.154;2024-03-02T09:42:22;12.48;;;1.83;;
70406;SDS011;57821;52.202;0.154;2024-03-02T09:44:50;10.95;;;2.03;;
70406;SDS011;57821;52.202;0.154;2024-03-02T09:47:17;13.30;;;2.33;;
70406;SDS011;57821;52.202;0.154;2024-03-02T09:49:44;9.20;;;1.30;;
70406;SDS011;57821;52.202;0.154;2024-03-02T09:52:11;14.43;;;1.83;;
70406;SDS011;57821;52.202;0.154;2024-03-02T09:54:38;10.95;;;1.40;;
70406;SDS011;57821;52.202;0.154;2024-03-02T09:57:05;11.98;;;1.85;;
70406;SDS011;57821;52.202;0.154;2024-03-02T09:59:32;12.30;;;1.65;;
70406;SDS011;57821;52.202;0.154;2024-03-02T10:02:00;11.20;;;1.52;;
70406;SDS011;57821;52.202;0.154;2024-03-02T10:04:28;11.85;;;1.60;;
70406;SDS011;57821;52.202;0.154;2024-03-02T10:07:11;8.23;;;1.20;;
70406;SDS011;57821;52.202;0.154;2024-03-02T10:09:41;8.45;;;1.75;;
70406;SDS011;57821;52.202;0.154;2024-03-02T10:12:09;10.02;;;1.08;;
70406;SDS011;57821;52.202;0.154;2024-03-02T10:14:37;9.13;;;1.30;;
70406;SDS011;57821;52.202;0.154;2024-03-02T10:17:09;10.50;;;1.38;;
70406;SDS011;57821;52.202;0.154;2024-03-02T10:19:37;10.48;;;1.60;;
70406;SDS011;57821;52.202;0.154;2024-03-02T10:22:06;7.95;;;1.33;;
70406;SDS011;57821;52.202;0.154;2024-03-02T10:24:43;5.00;;;0.90;;
70406;SDS011;57821;52.202;0.154;2024-03-02T10:27:15;7.50;;;1.20;;
70406;SDS011;57821;52.202;0.154;2024-03-02T10:29:46;6.57;;;1.15;;
70406;SDS011;57821;52.202;0.154;2024-03-02T10:32:14;6.22;;;1.17;;
70406;SDS011;57821;52.202;0.154;2024-03-02T10:34:42;9.27;;;1.50;;
70406;SDS011;57821;52.202;0.154;2024-03-02T10:37:11;8.32;;;1.38;;
70406;SDS011;57821;52.202;0.154;2024-03-02T10:39:39;9.63;;;1.35;;
70406;SDS011;57821;52.202;0.154;2024-03-02T10:42:07;12.80;;;1.55;;
70406;SDS011;57821;52.202;0.154;2024-03-02T10:44:34;5.68;;;1.55;;
70406;SDS011;57821;52.202;0.154;2024-03-02T10:47:02;8.32;;;1.35;;
70406;SDS011;57821;52.202;0.154;2024-03-02T10:49:31;8.65;;;1.25;;
70406;SDS011;57821;52.202;0.154;2024-03-02T10:51:59;12.32;;;1.15;;
70406;SDS011;57821;52.202;0.154;2024-03-02T10:54:27;8.80;;;1.25;;
70406;SDS011;57821;52.202;0.154;2024-03-02T10:56:59;10.07;;;1.50;;
70406;SDS011;57821;52.202;0.154;2024-03-02T10:59:33;10.88;;;1.38;;
70406;SDS011;57821;52.202;0.154;2024-03-02T11:02:02;5.78;;;1.02;;
70406;SDS011;57821;52.202;0.154;2024-03-02T11:04:32;6.18;;;1.10;;
70406;SDS011;57821;52.202;0.154;2024-03-02T11:07:06;9.48;;;1.38;;
70406;SDS011;57821;52.202;0.154;2024-03-02T11:09:35;9.13;;;1.45;;
70406;SDS011;57821;52.202;0.154;2024-03-02T11:12:13;10.07;;;2.03;;
70406;SDS011;57821;52.202;0.154;2024-03-02T11:14:55;8.73;;;1.17;;
70406;SDS011;57821;52.202;0.154;2024-03-02T11:17:23;8.60;;;1.45;;
70406;SDS011;57821;52.202;0.154;2024-03-02T11:19:51;10.32;;;1.52;;
70406;SDS011;57821;52.202;0.154;2024-03-02T11:22:18;8.82;;;1.33;;
70406;SDS011;57821;52.202;0.154;2024-03-02T11:24:50;7.57;;;1.40;;
70406;SDS011;57821;52.202;0.154;2024-03-02T11:27:59;8.65;;;1.20;;
70406;SDS011;57821;52.202;0.154;2024-03-02T11:30:54;12.15;;;1.52;;
70406;SDS011;57821;52.202;0.154;2024-03-02T11:33:04;9.32;;;1.45;;
70406;SDS011;57821;52.202;0.154;2024-03-02T11:35:40;6.82;;;0.93;;
70406;SDS011;57821;52.202;0.154;2024-03-02T11:38:17;6.55;;;1.23;;
70406;SDS011;57821;52.202;0.154;2024-03-02T11:40:44;8.85;;;0.98;;
70406;SDS011;57821;52.202;0.154;2024-03-02T11:43:11;6.18;;;2.30;;
70406;SDS011;57821;52.202;0.154;2024-03-02T11:45:38;4.28;;;0.65;;
70406;SDS011;57821;52.202;0.154;2024-03-02T11:48:11;3.42;;;0.55;;
70406;SDS011;57821;52.202;0.154;2024-03-02T11:53:16;3.72;;;0.60;;
70406;SDS011;57821;52.202;0.154;2024-03-02T11:55:44;5.13;;;0.57;;
70406;SDS011;57821;52.202;0.154;2024-03-02T11:58:14;4.78;;;0.70;;
70406;SDS011;57821;52.202;0.154;2024-03-02T12:00:44;3.92;;;0.50;;
70406;SDS011;57821;52.202;0.154;2024-03-02T12:03:12;5.95;;;0.93;;
70406;SDS011;57821;52.202;0.154;2024-03-02T12:05:40;4.65;;;0.80;;
70406;SDS011;57821;52.202;0.154;2024-03-02T12:08:07;4.35;;;0.93;;
70406;SDS011;57821;52.202;0.154;2024-03-02T12:10:34;5.20;;;0.70;;
70406;SDS011;57821;52.202;0.154;2024-03-02T12:13:03;5.80;;;1.10;;
70406;SDS011;57821;52.202;0.154;2024-03-02T12:15:35;6.13;;;1.20;;
70406;SDS011;57821;52.202;0.154;2024-03-02T12:18:03;6.95;;;1.13;;
70406;SDS011;57821;52.202;0.154;2024-03-02T12:20:31;7.63;;;1.20;;
70406;SDS011;57821;52.202;0.154;2024-03-02T12:23:00;2.58;;;0.73;;
70406;SDS011;57821;52.202;0.154;2024-03-02T12:25:28;7.65;;;1.38;;
70406;SDS011;57821;52.202;0.154;2024-03-02T12:27:57;6.68;;;1.00;;
70406;SDS011;57821;52.202;0.154;2024-03-02T12:30:29;8.15;;;0.90;;
70406;SDS011;57821;52.202;0.154;2024-03-02T12:32:57;4.97;;;0.80;;
70406;SDS011;57821;52.202;0.154;2024-03-02T12:35:24;3.30;;;0.57;;
70406;SDS011;57821;52.202;0.154;2024-03-02T12:37:52;3.33;;;0.50;;
70406;SDS011;57821;52.202;0.154;2024-03-02T12:40:20;1.45;;;0.30;;
70406;SDS011;57821;52.202;0.154;2024-03-02T12:42:49;3.05;;;0.43;;
70406;SDS011;57821;52.202;0.154;2024-03-02T12:45:18;2.78;;;0.43;;
70406;SDS011;57821;52.202;0.154;2024-03-02T12:47:54;5.82;;;0.77;;
70406;SDS011;57821;52.202;0.154;2024-03-02T12:50:21;2.28;;;0.40;;
70406;SDS011;57821;52.202;0.154;2024-03-02T12:52:54;2.95;;;0.43;;
70406;SDS011;57821;52.202;0.154;2024-03-02T12:55:22;2.20;;;0.45;;
70406;SDS011;57821;52.202;0.154;2024-03-02T12:57:53;3.28;;;0.60;;
70406;SDS011;57821;52.202;0.154;2024-03-02T13:00:21;2.78;;;0.45;;
70406;SDS011;57821;52.202;0.154;2024-03-02T13:02:49;1.58;;;0.25;;
70406;SDS011;57821;52.202;0.154;2024-03-02T13:05:18;4.22;;;0.50;;
70406;SDS011;57821;52.202;0.154;2024-03-02T13:07:46;2.28;;;0.55;;
70406;SDS011;57821;52.202;0.154;2024-03-02T13:10:13;3.65;;;0.60;;
70406;SDS011;57821;52.202;0.154;2024-03-02T13:12:40;5.03;;;0.63;;
70406;SDS011;57821;52.202;0.154;2024-03-02T13:15:08;5.25;;;0.50;;
70406;SDS011;57821;52.202;0.154;2024-03-02T13:17:35;4.45;;;0.68;;
70406;SDS011;57821;52.202;0.154;2024-03-02T13:20:04;2.50;;;0.63;;
70406;SDS011;57821;52.202;0.154;2024-03-02T13:22:35;2.50;;;0.57;;
70406;SDS011;57821;52.202;0.154;2024-03-02T13:25:02;3.30;;;1.10;;
70406;SDS011;57821;52.202;0.154;2024-03-02T13:27:33;2.60;;;0.60;;
70406;SDS011;57821;52.202;0.154;2024-03-02T13:30:01;4.68;;;0.70;;
70406;SDS011;57821;52.202;0.154;2024-03-02T13:32:29;3.83;;;0.80;;
70406;SDS011;57821;52.202;0.154;2024-03-02T13:34:55;1.33;;;0.30;;
70406;SDS011;57821;52.202;0.154;2024-03-02T13:37:23;1.45;;;0.30;;
70406;SDS011;57821;52.202;0.154;2024-03-02T13:39:50;2.90;;;0.47;;
70406;SDS011;57821;52.202;0.154;2024-03-02T13:42:17;1.75;;;0.38;;
70406;SDS011;57821;52.202;0.154;2024-03-02T13:44:44;2.47;;;0.40;;
70406;SDS011;57821;52.202;0.154;2024-03-02T13:47:16;1.90;;;0.40;;
70406;SDS011;57821;52.202;0.154;2024-03-02T13:49:43;2.60;;;0.57;;
70406;SDS011;57821;52.202;0.154;2024-03-02T13:52:12;1.60;;;0.40;;
70406;SDS011;57821;52.202;0.154;2024-03-02T13:54:44;2.30;;;0.50;;
70406;SDS011;57821;52.202;0.154;2024-03-02T13:57:14;4.18;;;1.65;;
70406;SDS011;57821;52.202;0.154;2024-03-02T13:59:42;1.00;;;0.35;;
70406;SDS011;57821;52.202;0.154;2024-03-02T14:02:10;0.40;;;0.15;;
70406;SDS011;57821;52.202;0.154;2024-03-02T14:04:38;3.13;;;0.75;;
70406;SDS011;57821;52.202;0.154;2024-03-02T14:07:06;2.13;;;0.32;;
70406;SDS011;57821;52.202;0.154;2024-03-02T14:09:39;3.13;;;0.30;;
70406;SDS011;57821;52.202;0.154;2024-03-02T14:12:06;4.32;;;0.70;;
70406;SDS011;57821;52.202;0.154;2024-03-02T14:14:33;2.45;;;1.15;;
70406;SDS011;57821;52.202;0.154;2024-03-02T14:17:00;2.03;;;0.32;;
70406;SDS011;57821;52.202;0.154;2024-03-02T14:19:30;3.53;;;0.47;;
70406;SDS011;57821;52.202;0.154;2024-03-02T14:21:58;3.47;;;0.43;;
70406;SDS011;57821;52.202;0.154;2024-03-02T14:24:25;2.30;;;0.50;;
70406;SDS011;57821;52.202;0.154;2024-03-02T14:26:56;1.85;;;0.40;;
70406;SDS011;57821;52.202;0.154;2024-03-02T14:29:45;1.15;;;0.30;;
70406;SDS011;57821;52.202;0.154;2024-03-02T14:32:12;1.35;;;0.30;;
70406;SDS011;57821;52.202;0.154;2024-03-02T14:34:39;1.67;;;0.30;;
70406;SDS011;57821;52.202;0.154;2024-03-02T14:37:06;2.17;;;0.63;;
70406;SDS011;57821;52.202;0.154;2024-03-02T14:39:33;1.50;;;0.52;;
70406;SDS011;57821;52.202;0.154;2024-03-02T14:42:01;1.92;;;0.38;;
70406;SDS011;57821;52.202;0.154;2024-03-02T14:44:28;1.83;;;0.50;;
70406;SDS011;57821;52.202;0.154;2024-03-02T14:46:54;4.70;;;0.73;;
70406;SDS011;57821;52.202;0.154;2024-03-02T14:49:21;2.28;;;0.47;;
70406;SDS011;57821;52.202;0.154;2024-03-02T14:51:48;1.60;;;0.30;;
70406;SDS011;57821;52.202;0.154;2024-03-02T14:54:15;2.17;;;0.60;;